KRCR

Details ICAO KRCR
Name FULTON CO
Region United States
Timezone America/Indiana/Indianapolis (UTC-5.0)
Plans Departing 0
Arriving 2
Stats Elevation 790 ft / 241 m (AMSL)
Location 41.065548° -86.181704°
Runways 1
Magnetic Variation 4.931° W
Sunrise 2017-12-15 13:04:19 UTC / 2017-12-15 08:04:19 Local
Sunset 2017-12-15 22:18:27 UTC / 2017-12-15 17:18:27 Local
Advertisement - Login to hide

Runways

ID Width Length Bearing (true) Bearing (mag) Surface Threshold Offset Overrun Length
11 75 ft / 23 m 4,990 ft / 1,521 m 105.15° 110.08° Asphalt 0 ft / 0 m 0 ft / 0 m
29 75 ft / 23 m 4,990 ft / 1,521 m 285.16° 290.09° Asphalt 0 ft / 0 m 0 ft / 0 m

Map

Weather


0- 5 10 15 20 25 30 35+ Temperature / ° C

Clouds and Precipitation
Forecast for 2017-12-15 18:00 UTC. Updated an hour ago

Ground ~20,000 ft ~40,000 ft Winds

METAR

KRCR 151355Z AUTO 23010KT 10SM BKN028 BKN033 M03/M07 A2994 RMK AO2

TAF

Not found

Frequencies

Recorded 118.77 MHz AWOS 3
Approach 132.05 MHz SOUTH BEND APP/DEP
Unicom 122.70 MHz CTAF/UNICOM
Warning: Do not use this data for real-world aviation or navigation. No guarantee of current accuracy is given.